Latest Weather Observations for North Head

IDN60801

Issued at 3:12 pm EDT Monday 18 November 2019 (issued every 10 minutes, with the page automatically refreshed every 10 minutes)

About weather observations | Map of weather stations | Latest weather observations for NSW | Other Formats
Station Details ID: 066197 Name: NORTH HEAD Lat: -33.82 Lon: 151.30 Height: 90.0 m
Data from the previous 72 hours. | See also: Recent months at North Head
Date/Time
EDT
Temp
°C
App
Temp
°C
Dew
Point
°C
Rel
Hum
%
Delta-T
°C
Wind Press
QNH
hPa
Press
MSL
hPa
Rain since
9am
mm
Dir  Spd
km/h
Gust
km/h
Spd
kts
Gust
kts
18/03:00pm - - - - - NE 24 37 13 20 - - -
18/02:30pm - - - - - NE 22 35 12 19 - - -
18/02:00pm - - - - - NE 22 33 12 18 - - -
18/01:30pm - - - - - NE 24 33 13 18 - - -
18/01:00pm - - - - - NE 20 33 11 18 - - -
18/12:30pm - - - - - NE 20 33 11 18 - - -
18/12:00pm - - - - - NE 17 28 9 15 - - -
18/11:30am - - - - - NE 15 28 8 15 - - -
18/11:00am - - - - - NE 17 28 9 15 - - -
18/10:30am - - - - - NE 15 22 8 12 - - -
18/10:00am - - - - - NNE 15 24 8 13 - - -
18/09:30am - - - - - NNE 15 20 8 11 - - -
18/09:00am - - - - - NNE 15 20 8 11 - - -
18/08:30am - - - - - NNE 9 17 5 9 - - -
18/08:00am - - - - - N 7 11 4 6 - - -
18/07:30am - - - - - NNW 4 7 2 4 - - -
18/07:00am - - - - - NW 4 6 2 3 - - -
18/06:30am - - - - - NW 6 6 3 3 - - -
18/06:00am - - - - - NW 6 7 3 4 - - -
18/05:30am - - - - - NNW 2 9 1 5 - - -
18/05:00am - - - - - NE 4 6 2 3 - - -
18/04:30am - - - - - E 4 6 2 3 - - -
18/04:00am - - - - - E 4 6 2 3 - - -
18/03:30am - - - - - ESE 7 11 4 6 - - -
18/03:00am - - - - - E 6 9 3 5 - - -
18/02:30am - - - - - ESE 9 13 5 7 - - -
18/02:00am - - - - - SE 7 11 4 6 - - -
18/01:30am - - - - - SSE 7 9 4 5 - - -
18/01:00am - - - - - ESE 11 15 6 8 - - -
18/12:30am - - - - - ESE 9 15 5 8 - - -
18/12:00am - - - - - SE 9 17 5 9 - - -
 
Date/Time
EDT
Temp
°C
App
Temp
°C
Dew
Point
°C
Rel
Hum
%
Delta-T
°C
Wind Press
QNH
hPa
Press
MSL
hPa
Rain since
9am
mm
Dir  Spd
km/h
Gust
km/h
Spd
kts
Gust
kts
17/11:30pm - - - - - ESE 11 15 6 8 - - -
17/11:00pm - - - - - SE 11 19 6 10 - - -
17/10:30pm - - - - - SE 15 22 8 12 - - -
17/10:00pm - - - - - SE 15 26 8 14 - - -
17/09:30pm - - - - - SE 15 26 8 14 - - -
17/09:00pm - - - - - SE 13 22 7 12 - - -
17/08:30pm - - - - - SE 17 26 9 14 - - -
17/08:00pm - - - - - SE 19 32 10 17 - - -
17/07:30pm - - - - - SE 19 35 10 19 - - -
17/07:00pm - - - - - SE 22 32 12 17 - - -
17/06:30pm - - - - - SE 19 32 10 17 - - -
17/06:00pm - - - - - SE 24 37 13 20 - - -
17/05:30pm - - - - - SE 24 37 13 20 - - -
17/05:00pm - - - - - SE 22 33 12 18 - - -
17/04:30pm - - - - - SE 20 32 11 17 - - -
17/04:00pm - - - - - SSE 26 39 14 21 - - -
17/03:30pm - - - - - SSE 26 37 14 20 - - -
17/03:00pm - - - - - SSE 26 37 14 20 - - -
17/02:30pm - - - - - SSE 28 39 15 21 - - -
17/02:00pm - - - - - SSE 28 41 15 22 - - -
17/01:30pm - - - - - SSE 28 39 15 21 - - -
17/01:00pm - - - - - SSE 30 43 16 23 - - -
17/12:30pm - - - - - SSE 26 39 14 21 - - -
17/12:00pm - - - - - SSE 30 41 16 22 - - -
17/11:30am - - - - - SSE 26 39 14 21 - - -
17/11:00am - - - - - SSE 26 37 14 20 - - -
17/10:30am - - - - - SSE 24 35 13 19 - - -
17/10:00am - - - - - SSE 20 32 11 17 - - -
17/09:30am - - - - - SSE 13 19 7 10 - - -
17/09:00am - - - - - S 11 20 6 11 - - -
17/08:30am - - - - - SSE 19 30 10 16 - - -
17/08:00am - - - - - S 7 15 4 8 - - -
17/07:30am - - - - - SW 9 15 5 8 - - -
17/07:00am - - - - - SW 9 13 5 7 - - -
17/06:30am - - - - - SSW 9 15 5 8 - - -
17/06:00am - - - - - S 13 20 7 11 - - -
17/05:30am - - - - - S 11 15 6 8 - - -
17/05:00am - - - - - S 9 15 5 8 - - -
17/04:30am - - - - - SSW 9 13 5 7 - - -
17/04:00am - - - - - S 7 9 4 5 - - -
17/03:30am - - - - - SSW 6 7 3 4 - - -
17/03:00am - - - - - SSW 4 6 2 3 - - -
17/02:30am - - - - - SE 2 4 1 2 - - -
17/02:00am - - - - - ENE 9 13 5 7 - - -
17/01:30am - - - - - ENE 7 13 4 7 - - -
17/01:00am - - - - - ENE 7 11 4 6 - - -
17/12:30am - - - - - E 7 9 4 5 - - -
17/12:00am - - - - - E 7 11 4 6 - - -
 
Date/Time
EDT
Temp
°C
App
Temp
°C
Dew
Point
°C
Rel
Hum
%
Delta-T
°C
Wind Press
QNH
hPa
Press
MSL
hPa
Rain since
9am
mm
Dir  Spd
km/h
Gust
km/h
Spd
kts
Gust
kts
16/11:30pm - - - - - NE 11 17 6 9 - - -
16/11:00pm - - - - - E 9 13 5 7 - - -
16/10:30pm - - - - - ENE 7 9 4 5 - - -
16/10:00pm - - - - - ENE 7 9 4 5 - - -
16/09:30pm - - - - - ENE 7 13 4 7 - - -
16/09:00pm - - - - - ENE 11 15 6 8 - - -
16/08:30pm - - - - - ENE 9 17 5 9 - - -
16/08:00pm - - - - - E 9 17 5 9 - - -
16/07:30pm - - - - - E 11 19 6 10 - - -
16/07:00pm - - - - - ESE 13 19 7 10 - - -
16/06:30pm - - - - - E 13 22 7 12 - - -
16/06:00pm - - - - - E 13 26 7 14 - - -
16/05:30pm - - - - - E 13 28 7 15 - - -
16/05:00pm - - - - - E 15 24 8 13 - - -
16/04:30pm - - - - - ESE 17 26 9 14 - - -
16/04:00pm - - - - - ESE 19 26 10 14 - - -
16/03:30pm - - - - - ESE 19 24 10 13 - - -
16/03:00pm - - - - - ESE 20 28 11 15 - - -
16/02:30pm - - - - - ESE 19 26 10 14 - - -
16/02:00pm - - - - - ESE 17 24 9 13 - - -
16/01:30pm - - - - - ESE 15 22 8 12 - - -
16/01:00pm - - - - - ESE 15 20 8 11 - - -
16/12:30pm - - - - - ESE 17 20 9 11 - - -
16/12:00pm - - - - - ESE 17 22 9 12 - - -
16/11:30am - - - - - SE 17 26 9 14 - - -
16/11:00am - - - - - SE 19 28 10 15 - - -
16/10:30am - - - - - SSE 19 24 10 13 - - -
16/10:00am - - - - - ESE 13 19 7 10 - - -
16/09:30am - - - - - SE 15 20 8 11 - - -
16/09:00am - - - - - SE 17 24 9 13 - - -
16/08:30am - - - - - SE 15 26 8 14 - - -
16/08:00am - - - - - SE 11 17 6 9 - - -
16/07:30am - - - - - SSE 13 22 7 12 - - -
16/07:00am - - - - - SSE 17 24 9 13 - - -
16/06:30am - - - - - SSE 19 26 10 14 - - -
16/06:00am - - - - - SSE 20 30 11 16 - - -
16/05:30am - - - - - SSE 20 32 11 17 - - -
16/05:00am - - - - - SSE 20 30 11 16 - - -
16/04:30am - - - - - S 20 33 11 18 - - -
16/04:00am - - - - - S 22 35 12 19 - - -
16/03:30am - - - - - S 26 39 14 21 - - -
16/03:00am - - - - - S 24 39 13 21 - - -
16/02:30am - - - - - S 22 35 12 19 - - -
16/02:00am - - - - - S 24 37 13 20 - - -
16/01:30am - - - - - S 26 43 14 23 - - -
16/01:00am - - - - - S 26 43 14 23 - - -
16/12:30am - - - - - SSW 24 44 13 24 - - -
16/12:00am - - - - - S 20 39 11 21 - - -
 
Date/Time
EDT
Temp
°C
App
Temp
°C
Dew
Point
°C
Rel
Hum
%
Delta-T
°C
Wind Press
QNH
hPa
Press
MSL
hPa
Rain since
9am
mm
Dir  Spd
km/h
Gust
km/h
Spd
kts
Gust
kts
15/11:30pm - - - - - S 19 37 10 20 - - -
15/11:00pm - - - - - S 22 37 12 20 - - -
15/10:30pm - - - - - S 26 43 14 23 - - -
15/10:00pm - - - - - W 24 41 13 22 - - -
15/09:30pm - - - - - W 26 39 14 21 - - -
15/09:00pm - - - - - W 19 26 10 14 - - -
15/08:30pm - - - - - W 19 30 10 16 - - -
15/08:00pm - - - - - NNW 7 15 4 8 - - -
15/07:30pm - - - - - N 9 19 5 10 - - -
15/07:00pm - - - - - NNE 15 22 8 12 - - -
15/06:30pm - - - - - NNE 22 32 12 17 - - -
15/06:00pm - - - - - NNE 19 32 10 17 - - -
15/05:30pm - - - - - NNE 17 26 9 14 - - -
15/05:00pm - - - - - NNE 19 28 10 15 - - -
15/04:30pm - - - - - NE 15 24 8 13 - - -
15/04:00pm - - - - - ENE 19 28 10 15 - - -
15/03:30pm - - - - - NE 22 30 12 16 - - -

Other formats

Comma delimited format used in spreadsheet applications
http://www.bom.gov.au/fwo/IDN60801/IDN60801.95768.axf

JavaScript Object Notation format (JSON) in row-major order
http://www.bom.gov.au/fwo/IDN60801/IDN60801.95768.json

Data quality

Most of these data are generated automatically and are frequently updated. Quality checks on data are not normally performed. It is possible for incorrect values to appear. Refer to information at About Latest Weather Observations and please check the disclaimer before using these data.